Latest Weather Observations for St Lawrence

IDQ60801

Issued at 10:01 am EST Wednesday 5 August 2015 (issued every 30 minutes, with the page automatically refreshed every 10 minutes)

About weather observations | Map of weather stations | Latest weather observations for QLD | Other Formats
Station Details ID: 033210 Name: ST LAWRENCE Lat: -22.35 Lon: 149.52 Height: 9.19 m
Data from the previous 72 hours. | See also: Recent months at St Lawrence
Date/Time
EST
Temp
°C
App
Temp
°C
Dew
Point
Rel
Hum
%
Delta-T
°C
Wind Press
QNH
hPa
Press
MSL
hPa
Rain
since 9 am
mm
Dir
 
Spd
km/h
Gust
km/h
Spd
kts
Gust
kts
05/10:00am 17.2 11.7 0.8 33 7.2 S 19 26 10 14 1021.0 1021.0 0.0
05/09:30am 16.1 10.5 1.4 37 6.4 S 20 32 11 17 1021.4 1021.4 0.0
05/09:00am 15.1 9.6 1.6 40 5.9 S 20 32 11 17 1021.5 1021.5 0.0
05/08:30am 14.7 9.4 1.9 42 5.6 S 19 28 10 15 1021.1 1021.1 0.0
05/08:00am 13.8 8.9 1.8 44 5.2 S 17 28 9 15 1020.8 1020.8 0.0
05/07:30am 12.8 8.7 2.1 48 4.6 SSW 13 20 7 11 1020.5 1020.5 0.0
05/07:00am 11.6 7.8 1.8 51 4.2 SSW 11 17 6 9 1020.3 1020.3 0.0
05/06:30am 11.3 7.9 1.8 52 4.0 SSW 9 15 5 8 1019.9 1019.9 0.0
05/06:00am 11.8 8.0 1.7 50 4.3 SSW 11 19 6 10 1019.4 1019.4 0.0
05/05:30am 11.6 7.8 1.8 51 4.2 SSW 11 17 6 9 1018.9 1018.9 0.0
05/05:00am 11.8 8.0 1.7 50 4.3 S 11 17 6 9 1018.5 1018.5 0.0
05/04:30am 11.8 7.9 1.4 49 4.4 S 11 17 6 9 1018.2 1018.2 0.0
05/04:00am 12.3 8.0 1.0 46 4.7 S 13 19 7 10 1018.1 1018.1 0.0
05/03:30am 12.8 8.5 1.2 45 4.9 S 13 19 7 10 1017.9 1017.9 0.0
05/03:00am 11.9 8.6 0.4 45 4.7 S 7 11 4 6 1018.0 1018.0 0.0
05/02:30am 13.0 9.0 0.4 42 5.3 S 11 15 6 8 1017.9 1017.9 0.0
05/02:00am 13.1 8.8 1.1 44 5.1 SSE 13 17 7 9 1018.1 1018.1 0.0
05/01:30am 13.7 9.8 1.0 42 5.4 SSE 11 17 6 9 1018.1 1018.1 0.0
05/01:00am 15.5 10.7 0.5 36 6.4 SSE 15 20 8 11 1017.9 1017.9 0.0
05/12:30am 15.1 11.1 3.0 44 5.5 S 13 20 7 11 1017.9 1017.9 0.0
05/12:00am 12.0 9.4 4.0 58 3.6 S 7 9 4 5 1017.7 1017.7 0.0
 
Date/Time
EST
Temp
°C
App
Temp
°C
Dew
Point
Rel
Hum
%
Delta-T
°C
Wind Press
QNH
hPa
Press
MSL
hPa
Rain
since 9 am
mm
Dir
 
Spd
km/h
Gust
km/h
Spd
kts
Gust
kts
04/11:30pm 13.0 10.4 4.4 56 3.9 S 7 9 4 5 1017.9 1017.9 0.0
04/11:00pm 12.8 10.3 4.8 58 3.7 S 7 9 4 5 1017.8 1017.8 0.0
04/10:30pm 13.4 11.1 4.6 55 4.0 SSW 6 7 3 4 1017.8 1017.8 0.0
04/10:00pm 14.7 12.4 5.0 52 4.5 S 6 6 3 3 1017.6 1017.6 0.0
04/09:30pm 16.2 13.7 4.9 47 5.3 S 7 9 4 5 1017.6 1017.6 0.0
04/09:00pm 16.5 14.1 5.2 47 5.4 S 7 9 4 5 1017.5 1017.5 0.0
04/08:30pm 17.4 15.2 6.0 47 5.6 SE 7 9 4 5 1017.2 1017.2 0.0
04/08:00pm 18.3 15.6 5.8 44 6.1 SSE 9 13 5 7 1017.0 1017.0 0.0
04/07:30pm 19.0 16.1 6.5 44 6.2 SSE 11 17 6 9 1016.9 1016.9 0.0
04/07:00pm 19.8 16.8 6.2 41 6.8 S 11 17 6 9 1016.5 1016.5 0.0
04/06:30pm 21.2 18.2 5.9 37 7.7 S 11 17 6 9 1016.0 1016.0 0.0
04/06:00pm 22.3 19.3 6.1 35 8.2 S 11 17 6 9 1015.7 1015.7 0.0
04/05:30pm 23.7 20.5 6.9 34 8.7 S 13 20 7 11 1015.5 1015.5 0.0
04/05:00pm 24.7 22.0 7.4 33 9.1 S 11 17 6 9 1015.4 1015.4 0.0
04/04:30pm 25.2 22.0 6.9 31 9.6 S 13 22 7 12 1015.0 1015.0 0.0
04/04:00pm 25.8 22.6 6.9 30 9.9 SSE 13 20 7 11 1014.9 1014.9 0.0
04/03:30pm 25.7 22.0 6.3 29 10.1 S 15 30 8 16 1015.0 1015.0 0.0
04/03:00pm 25.7 22.1 6.8 30 9.9 SE 15 26 8 14 1015.1 1015.1 0.0
04/02:30pm 25.6 22.4 6.7 30 9.9 SSE 13 24 7 13 1015.3 1015.3 0.0
04/02:00pm 25.2 22.0 6.9 31 9.6 SSE 13 22 7 12 1015.6 1015.6 0.0
04/01:30pm 25.0 21.8 6.7 31 9.5 S 13 22 7 12 1016.0 1016.0 0.0
04/01:00pm 25.0 22.3 7.2 32 9.3 SSW 11 24 6 13 1016.6 1016.6 0.0
04/12:30pm 23.7 20.3 6.0 32 9.0 SSE 13 20 7 11 1017.1 1017.1 0.0
04/12:00pm 23.4 19.7 6.2 33 8.8 S 15 24 8 13 1017.8 1017.8 0.0
04/11:30am 23.1 19.4 6.4 34 8.5 S 15 22 8 12 1018.4 1018.4 0.0
04/11:00am 22.4 18.2 5.8 34 8.3 S 17 26 9 14 1019.0 1019.0 0.0
04/10:30am 21.3 17.1 5.6 36 7.8 SSE 17 26 9 14 1019.4 1019.4 0.0
04/10:00am 20.5 16.3 5.7 38 7.3 S 17 30 9 16 1019.6 1019.6 0.0
04/09:30am 19.2 14.1 6.0 42 6.5 SSE 22 33 12 18 1019.8 1019.8 0.0
04/09:00am 18.0 13.3 5.9 45 5.9 S 20 30 11 16 1019.8 1019.8 0.0
04/08:30am 17.2 12.2 6.4 49 5.3 S 22 33 12 18 1019.8 1019.8 0.0
04/08:00am 16.2 13.2 9.2 63 3.6 SSE 15 28 8 15 1019.4 1019.4 0.0
04/07:30am 15.5 12.3 9.8 69 3.0 SSE 17 26 9 14 1019.1 1019.1 0.0
04/07:00am 14.9 12.7 10.7 76 2.2 S 13 19 7 10 1018.6 1018.6 0.0
04/06:30am 15.1 12.6 12.4 84 1.5 S 17 22 9 12 1018.1 1018.1 0.0
04/06:00am 15.2 14.2 14.6 96 0.3 S 13 19 7 10 1017.5 1017.5 0.0
04/05:30am 15.1 14.5 14.5 96 0.3 SSW 11 15 6 8 1017.6 1017.6 0.0
04/05:00am 14.8 15.4 14.2 96 0.3 S 4 9 2 5 1017.3 1017.3 0.0
04/04:30am 14.7 14.2 13.9 95 0.4 WSW 9 11 5 6 1017.0 1017.0 0.0
04/04:00am 15.4 14.9 14.8 96 0.3 SE 11 15 6 8 1016.6 1016.6 0.0
04/03:30am 14.5 12.9 13.9 96 0.3 SSE 15 26 8 14 1016.9 1016.9 0.0
04/03:00am 12.8 11.0 12.0 95 0.4 S 13 20 7 11 1016.7 1016.7 0.0
04/02:30am 12.5 13.0 11.6 94 0.5 CALM 0 6 0 3 1016.2 1016.2 0.0
04/02:00am 12.8 13.0 11.9 94 0.5 SSW 2 6 1 3 1016.2 1016.2 0.0
04/01:30am 12.4 12.8 11.3 93 0.6 CALM 0 0 0 0 1016.4 1016.4 0.0
04/01:00am 12.8 13.3 11.7 93 0.6 CALM 0 0 0 0 1016.8 1016.8 0.0
04/12:30am 13.2 13.9 12.1 93 0.6 CALM 0 0 0 0 1017.1 1017.1 0.0
04/12:00am 13.0 13.5 11.7 92 0.7 CALM 0 0 0 0 1017.1 1017.1 0.0
 
Date/Time
EST
Temp
°C
App
Temp
°C
Dew
Point
Rel
Hum
%
Delta-T
°C
Wind Press
QNH
hPa
Press
MSL
hPa
Rain
since 9 am
mm
Dir
 
Spd
km/h
Gust
km/h
Spd
kts
Gust
kts
03/11:30pm 13.8 14.6 12.7 93 0.6 CALM 0 0 0 0 1017.4 1017.4 0.0
03/11:00pm 14.0 13.6 13.1 94 0.5 WSW 7 9 4 5 1017.5 1017.5 0.0
03/10:30pm 13.9 14.6 12.3 90 0.9 CALM 0 0 0 0 1017.6 1017.6 0.0
03/10:00pm 15.5 16.8 14.0 91 0.8 CALM 0 0 0 0 1017.8 1017.8 0.0
03/09:30pm 15.7 17.0 14.1 90 0.9 CALM 0 0 0 0 1017.8 1017.8 0.0
03/09:00pm 15.6 16.0 13.6 88 1.1 WNW 4 7 2 4 1017.9 1017.9 0.0
03/08:30pm 16.6 17.9 14.1 85 1.4 CALM 0 0 0 0 1017.9 1017.9 0.0
03/08:00pm 17.7 19.1 14.4 81 1.9 CALM 0 0 0 0 1017.7 1017.7 0.0
03/07:30pm 18.9 19.4 15.6 81 1.9 NE 7 9 4 5 1017.4 1017.4 0.0
03/07:00pm 19.4 19.6 15.7 79 2.2 NE 9 11 5 6 1017.1 1017.1 0.0
03/06:30pm 19.8 19.7 16.1 79 2.2 NNE 11 13 6 7 1016.9 1016.9 0.0
03/06:00pm 20.4 19.9 15.8 75 2.7 NNE 13 20 7 11 1016.7 1016.7 0.0
03/05:30pm 21.2 20.5 15.3 69 3.5 NNE 13 19 7 10 1016.6 1016.6 0.0
03/05:00pm 21.9 20.4 15.3 66 3.9 NE 17 20 9 11 1016.4 1016.4 0.0
03/04:30pm 23.2 21.7 15.3 61 4.7 NE 17 20 9 11 1016.3 1016.3 0.0
03/04:00pm 24.0 22.1 12.9 50 6.4 NE 15 19 8 10 1016.3 1016.3 0.0
03/03:30pm 24.3 22.8 13.2 50 6.4 NE 13 19 7 10 1016.3 1016.3 0.0
03/03:00pm 24.1 21.8 13.0 50 6.4 NE 17 20 9 11 1016.4 1016.4 0.0
03/02:30pm 24.6 22.5 13.5 50 6.5 NNE 17 22 9 12 1016.6 1016.6 0.0
03/02:00pm 25.1 23.1 13.9 49 6.6 NNE 17 22 9 12 1016.8 1016.8 0.0
03/01:30pm 25.2 23.6 14.9 52 6.2 NE 17 24 9 13 1017.4 1017.4 0.0
03/01:00pm 24.5 22.8 14.6 54 5.9 NE 17 20 9 11 1018.0 1018.0 0.0
03/12:30pm 24.0 22.9 15.2 58 5.3 NNE 15 22 8 12 1018.3 1018.3 0.0
03/12:00pm 23.9 23.3 15.7 60 4.9 NE 13 19 7 10 1018.7 1018.7 0.0
03/11:30am 23.8 23.7 16.1 62 4.7 NE 11 15 6 8 1019.3 1019.3 0.0
03/11:00am 22.7 22.9 15.8 65 4.1 NE 9 15 5 8 1019.7 1019.7 0.0
03/10:30am 22.5 22.7 15.8 66 4.0 NNE 9 13 5 7 1020.2 1020.2 0.0
03/10:00am 21.9 22.9 16.4 71 3.3 NNE 6 9 3 5 1020.5 1020.5 0.0
03/09:30am 20.6 21.9 17.0 80 2.2 W 6 7 3 4 1021.0 1021.0 0.0
03/09:00am 18.9 20.9 17.0 89 1.1 SW 2 6 1 3 1020.8 1020.8 0.0
03/08:30am 16.6 17.4 15.8 95 0.5 W 6 7 3 4 1020.8 1020.8 0.0
03/08:00am 15.7 16.2 15.1 96 0.3 SW 6 7 3 4 1020.4 1020.4 0.0
03/07:30am 15.2 16.3 14.6 96 0.3 SSW 2 7 1 4 1020.1 1020.1 0.0
03/07:00am 14.6 15.4 13.6 94 0.6 SW 2 6 1 3 1019.7 1019.7 0.0
03/06:30am 14.4 14.6 13.1 92 0.7 SW 4 6 2 3 1019.5 1019.5 0.0
03/06:00am 14.9 16.0 13.6 92 0.7 CALM 0 0 0 0 1019.5 1019.5 0.0
03/05:30am 14.6 15.7 13.5 93 0.6 CALM 0 0 0 0 1019.3 1019.3 0.0
03/05:00am 13.7 14.4 12.3 91 0.8 CALM 0 0 0 0 1019.2 1019.2 0.0
03/04:30am 13.9 14.2 12.3 90 0.9 SW 2 6 1 3 1019.0 1019.0 0.0
03/04:00am 14.7 14.6 13.2 91 0.8 SW 6 6 3 3 1019.0 1019.0 0.0
03/03:30am 14.6 15.2 13.1 91 0.8 SW 2 6 1 3 1019.2 1019.2 0.0
03/03:00am 14.7 15.6 12.9 89 1.0 CALM 0 0 0 0 1019.3 1019.3 0.0
03/02:30am 15.1 15.5 13.6 91 0.8 SW 4 7 2 4 1019.4 1019.4 0.0
03/02:00am 14.7 15.3 13.2 91 0.8 WSW 2 6 1 3 1019.5 1019.5 0.0
03/01:30am 14.9 15.2 13.4 91 0.8 W 4 7 2 4 1019.8 1019.8 0.0
03/01:00am 14.5 15.4 12.9 90 0.9 CALM 0 0 0 0 1020.1 1020.1 0.0
03/12:30am 14.1 15.0 13.0 93 0.6 CALM 0 0 0 0 1020.2 1020.2 0.0
03/12:00am 13.3 13.7 11.4 88 1.0 CALM 0 0 0 0 1020.4 1020.4 0.0
 
Date/Time
EST
Temp
°C
App
Temp
°C
Dew
Point
Rel
Hum
%
Delta-T
°C
Wind Press
QNH
hPa
Press
MSL
hPa
Rain
since 9 am
mm
Dir
 
Spd
km/h
Gust
km/h
Spd
kts
Gust
kts
02/11:30pm 14.1 13.8 12.8 92 0.7 W 6 6 3 3 1020.6 1020.6 0.0
02/11:00pm 13.8 14.3 11.7 87 1.1 CALM 0 0 0 0 1020.7 1020.7 0.0
02/10:30pm 14.7 15.7 13.1 90 0.9 CALM 0 0 0 0 1020.6 1020.6 0.0
02/10:00pm 14.5 15.0 11.5 82 1.6 CALM 0 0 0 0 1020.8 1020.8 0.0
02/09:30pm 15.8 16.9 13.6 87 1.2 CALM 0 0 0 0 1020.7 1020.7 0.0
02/09:00pm 16.0 17.1 13.5 85 1.4 CALM 0 0 0 0 1020.4 1020.4 0.0
02/08:30pm 16.5 17.6 13.4 82 1.7 CALM 0 0 0 0 1020.4 1020.4 0.0
02/08:00pm 17.4 18.7 14.1 81 1.9 CALM 0 0 0 0 1020.3 1020.3 0.0
02/07:30pm 18.4 19.2 14.7 79 2.1 N 4 7 2 4 1020.2 1020.2 0.0
02/07:00pm 18.5 19.9 14.4 77 2.4 CALM 0 6 0 3 1020.1 1020.1 0.0
02/06:30pm 19.4 20.1 14.6 74 2.8 NNE 4 7 2 4 1019.9 1019.9 0.0
02/06:00pm 20.3 20.7 15.3 73 2.9 NE 7 11 4 6 1019.7 1019.7 0.0
02/05:30pm 21.5 20.7 15.1 67 3.8 NE 13 17 7 9 1019.6 1019.6 0.0
02/05:00pm 22.8 21.8 14.6 60 4.8 NE 13 17 7 9 1019.5 1019.5 0.0
02/04:30pm 23.5 22.2 13.7 54 5.7 NE 13 20 7 11 1019.3 1019.3 0.0
02/04:00pm 24.1 22.2 14.2 54 5.8 NE 17 20 9 11 1019.3 1019.3 0.0
02/03:30pm 24.8 23.5 13.7 50 6.5 NE 13 19 7 10 1019.4 1019.4 0.0
02/03:00pm 24.0 22.4 13.8 53 6.0 NE 15 20 8 11 1019.6 1019.6 0.0
02/02:30pm 24.9 23.8 14.4 52 6.2 NNE 13 19 7 10 1019.7 1019.7 0.0
02/02:00pm 24.5 23.3 14.0 52 6.2 NNE 13 19 7 10 1020.2 1020.2 0.0
02/01:30pm 24.8 23.2 14.0 51 6.4 NE 15 19 8 10 1020.6 1020.6 0.0
02/01:00pm 24.6 23.5 14.4 53 6.0 NE 13 19 7 10 1021.1 1021.1 0.0
02/12:30pm 24.3 22.6 13.5 51 6.3 NNE 15 22 8 12 1021.7 1021.7 0.0
02/12:00pm 24.0 23.0 14.7 56 5.5 NE 13 24 7 13 1022.2 1022.2 0.0
02/11:30am 23.6 21.6 14.0 55 5.6 NE 17 24 9 13 1022.6 1022.6 0.0
02/11:00am 23.4 22.4 14.7 58 5.1 NE 13 19 7 10 1022.8 1022.8 0.0
02/10:30am 22.9 22.7 14.7 60 4.9 NNE 9 17 5 9 1023.0 1023.0 0.0

Other Formats:

Comma delimited format used in spreadsheet applications
http://www.bom.gov.au/fwo/IDQ60801/IDQ60801.95369.axf

JavaScript Object Notation format (JSON) in row-major order
http://www.bom.gov.au/fwo/IDQ60801/IDQ60801.95369.json